Time;durP1;ratioP1;P1;durP2;ratioP2;P2;SDS_P1;SDS_P2;PMS_P1;PMS_P2;Temp;Humidity;BMP_temperature;BMP_pressure;BME280_temperature;BME280_humidity;BME280_pressure;Samples;Min_cycle;Max_cycle;Signal;HPM_P1;HPM_P2
2021/10/16 00:00:20;;;;;;;30.20;12.30;;;;;;;4.36;94.41;102124.78;5013158;28;20026;-63
2021/10/16 00:02:47;;;;;;;29.95;13.32;;;;;;;4.36;94.58;102130.91;5013137;28;20152;-64
2021/10/16 00:05:12;;;;;;;29.98;12.70;;;;;;;4.19;94.27;102135.31;5012930;28;20030;-68
2021/10/16 00:07:38;;;;;;;30.25;12.23;;;;;;;4.12;95.22;102138.41;5023022;28;20026;-69
2021/10/16 00:10:05;;;;;;;30.10;12.10;;;;;;;4.16;96.79;102145.59;5023391;28;20053;-67
2021/10/16 00:12:30;;;;;;;25.77;11.20;;;;;;;4.15;96.08;102146.44;5013077;28;20030;-68
2021/10/16 00:14:56;;;;;;;29.02;11.50;;;;;;;4.11;95.50;102147.09;5021329;28;20087;-68
2021/10/16 00:17:21;;;;;;;30.15;12.07;;;;;;;4.22;98.37;102146.72;5024830;28;20112;-66
2021/10/16 00:19:47;;;;;;;28.83;11.70;;;;;;;4.11;97.88;102140.97;5021295;28;20026;-68
2021/10/16 00:22:12;;;;;;;26.15;11.70;;;;;;;4.11;97.93;102139.22;5023181;28;20026;-68
2021/10/16 00:24:38;;;;;;;30.35;12.98;;;;;;;4.13;100.00;102141.94;5022617;28;20084;-68
2021/10/16 00:27:03;;;;;;;30.00;12.70;;;;;;;4.21;99.45;102139.69;5022444;28;20014;-65
2021/10/16 00:29:29;;;;;;;30.75;13.27;;;;;;;4.15;99.53;102135.97;5023540;28;20121;-68
2021/10/16 00:31:54;;;;;;;28.85;12.57;;;;;;;4.15;98.13;102140.28;5021254;28;20014;-66
2021/10/16 00:34:20;;;;;;;31.75;12.70;;;;;;;4.01;97.52;102140.47;5024435;28;20025;-65
2021/10/16 00:36:45;;;;;;;28.42;12.02;;;;;;;3.96;98.22;102139.34;5021469;28;20030;-66
2021/10/16 00:39:10;;;;;;;28.15;11.60;;;;;;;3.93;98.13;102138.28;5012775;28;20444;-67
2021/10/16 00:41:36;;;;;;;29.52;12.15;;;;;;;3.94;99.66;102134.84;5016429;28;20053;-68
2021/10/16 00:44:16;;;;;;;30.10;11.95;;;;;;;3.96;98.52;102130.56;5025971;28;20033;-68
2021/10/16 00:46:42;;;;;;;31.33;11.55;;;;;;;3.90;97.79;102136.38;5026115;28;20033;-69
2021/10/16 00:49:08;;;;;;;27.73;11.48;;;;;;;3.87;97.96;102130.09;5015394;28;20109;-63
2021/10/16 00:51:34;;;;;;;28.15;11.65;;;;;;;3.83;97.91;102129.97;5016150;28;20422;-65
2021/10/16 00:54:00;;;;;;;28.58;11.57;;;;;;;3.83;98.16;102132.56;5016282;28;20057;-64
2021/10/16 00:56:26;;;;;;;27.90;11.23;;;;;;;3.73;98.82;102126.75;5024767;28;20030;-64
2021/10/16 00:58:54;;;;;;;26.60;11.75;;;;;;;3.71;99.21;102125.78;5027875;28;20476;-63
2021/10/16 01:01:19;;;;;;;29.65;12.07;;;;;;;3.63;100.00;102131.50;5020606;28;20362;-63
2021/10/16 01:03:45;;;;;;;31.05;11.65;;;;;;;3.65;99.91;102127.25;5016045;28;20033;-65
2021/10/16 01:06:10;;;;;;;28.55;12.18;;;;;;;3.65;100.00;102124.63;5026425;28;20034;-64
2021/10/16 01:08:35;;;;;;;30.98;14.05;;;;;;;3.63;100.00;102117.56;5026532;28;20026;-63
2021/10/16 01:11:01;;;;;;;33.03;15.52;;;;;;;3.72;100.00;102120.63;5016322;28;20064;-63
2021/10/16 01:13:28;;;;;;;32.80;15.57;;;;;;;3.61;100.00;102121.78;5016084;28;20488;-63
2021/10/16 01:15:54;;;;;;;37.17;19.38;;;;;;;3.58;100.00;102119.94;5016370;28;20029;-65
2021/10/16 01:18:21;;;;;;;40.05;22.05;;;;;;;3.59;100.00;102121.69;5015896;28;20030;-63
2021/10/16 01:20:57;;;;;;;41.53;22.33;;;;;;;3.57;100.00;102119.81;5015916;28;20112;-63
2021/10/16 01:23:22;;;;;;;39.22;21.45;;;;;;;3.48;100.00;102113.28;5027848;28;20372;-65
2021/10/16 01:25:51;;;;;;;39.38;21.42;;;;;;;3.46;100.00;102117.53;5024424;28;20025;-63
2021/10/16 01:28:16;;;;;;;39.15;23.00;;;;;;;3.58;100.00;102116.38;5026893;28;20021;-63
2021/10/16 01:30:42;;;;;;;40.90;22.95;;;;;;;3.57;100.00;102115.50;5025117;28;20435;-63
2021/10/16 01:33:07;;;;;;;39.88;22.15;;;;;;;3.43;100.00;102111.25;5015731;28;20030;-63
2021/10/16 01:35:33;;;;;;;42.42;23.42;;;;;;;3.44;100.00;102119.16;5015730;28;20030;-64
2021/10/16 01:37:58;;;;;;;41.53;23.58;;;;;;;3.42;100.00;102109.44;5024390;28;20434;-64
2021/10/16 01:40:23;;;;;;;39.10;22.50;;;;;;;3.30;100.00;102118.41;5027139;28;20021;-63
2021/10/16 01:42:50;;;;;;;43.13;23.95;;;;;;;3.24;100.00;102106.75;5023869;28;20485;-63
2021/10/16 01:45:19;;;;;;;40.55;21.90;;;;;;;3.22;100.00;102105.75;5025600;28;20038;-63
2021/10/16 01:47:50;;;;;;;42.20;22.95;;;;;;;3.21;100.00;102111.81;5024281;28;20018;-65
2021/10/16 01:50:17;;;;;;;37.75;21.58;;;;;;;3.20;100.00;102097.81;5026258;28;20124;-65
2021/10/16 01:52:42;;;;;;;40.25;22.10;;;;;;;3.20;100.00;102107.38;5024866;28;20029;-63
2021/10/16 01:55:08;;;;;;;39.17;21.95;;;;;;;3.27;100.00;102101.69;5025093;28;20496;-69
2021/10/16 01:57:33;;;;;;;39.55;22.13;;;;;;;3.23;100.00;102107.56;5026058;28;20025;-69
2021/10/16 01:59:58;;;;;;;38.63;22.15;;;;;;;3.13;100.00;102101.84;5015323;28;20469;-66
2021/10/16 02:02:24;;;;;;;38.28;21.58;;;;;;;3.11;100.00;102099.94;5023285;28;20092;-68
2021/10/16 02:04:49;;;;;;;38.65;21.50;;;;;;;3.04;100.00;102108.25;5026553;28;20044;-69
2021/10/16 02:07:14;;;;;;;38.75;20.60;;;;;;;3.10;100.00;102112.13;5024340;28;20034;-69
2021/10/16 02:09:40;;;;;;;36.22;19.75;;;;;;;3.19;100.00;102110.81;5025420;28;20052;-68
2021/10/16 02:12:05;;;;;;;35.10;19.75;;;;;;;3.13;100.00;102107.06;5025330;28;20052;-69
2021/10/16 02:14:30;;;;;;;37.45;19.52;;;;;;;3.12;100.00;102115.69;4997235;28;20042;-69
2021/10/16 02:16:57;;;;;;;35.00;18.83;;;;;;;3.11;100.00;102113.91;5023128;28;20034;-68
2021/10/16 02:19:23;;;;;;;37.17;18.10;;;;;;;3.07;100.00;102116.25;5026639;28;20078;-69
2021/10/16 02:21:48;;;;;;;35.60;17.60;;;;;;;3.00;100.00;102114.13;5023362;28;20465;-68
2021/10/16 02:24:13;;;;;;;32.72;17.08;;;;;;;3.07;100.00;102116.25;5025297;28;20032;-69
2021/10/16 02:26:39;;;;;;;34.22;17.95;;;;;;;3.17;100.00;102113.34;5024644;28;20025;-69
2021/10/16 02:29:04;;;;;;;34.17;17.25;;;;;;;3.26;100.00;102108.63;5023047;28;20150;-67
2021/10/16 02:31:29;;;;;;;33.63;17.35;;;;;;;3.30;100.00;102109.69;5025885;28;20033;-69
2021/10/16 02:33:55;;;;;;;31.27;14.88;;;;;;;3.30;100.00;102112.28;5022961;28;20029;-70
2021/10/16 02:36:20;;;;;;;30.92;15.45;;;;;;;3.38;100.00;102107.47;5025947;28;20026;-68
2021/10/16 02:38:46;;;;;;;32.88;16.67;;;;;;;3.42;100.00;102110.38;5023094;28;20030;-69
2021/10/16 02:41:11;;;;;;;32.67;17.45;;;;;;;3.35;100.00;102123.91;5014546;28;20026;-69
2021/10/16 02:43:37;;;;;;;33.22;16.83;;;;;;;3.44;100.00;102113.06;5024190;28;20022;-69
2021/10/16 02:46:02;;;;;;;37.20;18.50;;;;;;;3.41;100.00;102116.41;5025005;28;20033;-68
2021/10/16 02:48:27;;;;;;;37.45;19.48;;;;;;;3.46;100.00;102114.03;5022945;28;20022;-68
2021/10/16 02:50:52;;;;;;;36.55;18.73;;;;;;;3.45;100.00;102112.22;5025956;28;20050;-69
2021/10/16 02:53:18;;;;;;;38.55;19.45;;;;;;;3.45;100.00;102114.81;5022831;28;20075;-70
2021/10/16 02:55:43;;;;;;;38.70;20.15;;;;;;;3.45;100.00;102113.13;5024542;28;20049;-68
2021/10/16 02:58:08;;;;;;;37.15;20.50;;;;;;;3.39;100.00;102112.78;5023820;28;20346;-68
2021/10/16 03:00:34;;;;;;;36.92;20.67;;;;;;;3.31;100.00;102112.38;5014224;28;20033;-68
2021/10/16 03:02:59;;;;;;;37.25;20.92;;;;;;;3.31;100.00;102111.50;5022056;28;20040;-69
2021/10/16 03:05:24;;;;;;;38.60;20.70;;;;;;;3.30;100.00;102112.28;5025611;28;20028;-69
2021/10/16 03:07:50;;;;;;;38.38;20.45;;;;;;;3.35;100.00;102109.94;5022330;28;20037;-69
2021/10/16 03:10:15;;;;;;;35.05;19.52;;;;;;;3.35;100.00;102113.47;5024855;28;20029;-69
2021/10/16 03:12:40;;;;;;;35.35;19.75;;;;;;;3.44;100.00;102119.16;5023592;28;20395;-68
2021/10/16 03:15:06;;;;;;;35.50;18.92;;;;;;;3.55;100.00;102116.22;5023784;28;20046;-69
2021/10/16 03:17:31;;;;;;;37.80;17.83;;;;;;;3.56;100.00;102118.03;5024784;28;20072;-69
2021/10/16 03:19:57;;;;;;;34.63;17.83;;;;;;;3.69;100.00;102117.88;5022001;28;20033;-63
2021/10/16 03:22:22;;;;;;;35.75;19.13;;;;;;;3.73;100.00;102122.44;5025216;28;20025;-64
2021/10/16 03:24:48;;;;;;;34.05;18.02;;;;;;;3.89;100.00;102118.91;5022129;28;20026;-64
2021/10/16 03:27:13;;;;;;;36.65;19.13;;;;;;;3.99;100.00;102115.94;5013601;28;20022;-63
2021/10/16 03:29:39;;;;;;;35.53;18.85;;;;;;;4.01;100.00;102116.03;5023582;28;20072;-63
2021/10/16 03:32:04;;;;;;;37.60;19.33;;;;;;;3.96;100.00;102117.50;5023896;28;20068;-63
2021/10/16 03:34:30;;;;;;;34.78;18.60;;;;;;;4.06;100.00;102116.25;5013718;28;20018;-64
2021/10/16 03:36:56;;;;;;;38.10;19.10;;;;;;;4.05;100.00;102112.75;5021583;28;20064;-63
2021/10/16 03:39:22;;;;;;;38.15;19.88;;;;;;;3.99;100.00;102115.03;5024901;28;20029;-64
2021/10/16 03:41:47;;;;;;;38.95;20.23;;;;;;;3.95;100.00;102110.50;5020709;28;20026;-64
2021/10/16 03:44:13;;;;;;;35.85;20.02;;;;;;;4.02;100.00;102115.22;5013587;28;20041;-64
2021/10/16 03:46:38;;;;;;;37.15;20.05;;;;;;;4.01;100.00;102119.53;5013154;28;20461;-63
2021/10/16 03:49:04;;;;;;;38.90;19.98;;;;;;;4.07;100.00;102112.84;5022828;28;20021;-64
2021/10/16 03:51:29;;;;;;;38.80;20.52;;;;;;;4.06;100.00;102118.88;5024704;28;20040;-63
2021/10/16 03:53:55;;;;;;;40.20;20.75;;;;;;;4.03;100.00;102109.13;5021128;28;20025;-63
2021/10/16 03:56:20;;;;;;;39.08;20.17;;;;;;;4.07;100.00;102111.09;5024908;28;20029;-64
2021/10/16 03:58:45;;;;;;;39.05;21.23;;;;;;;4.19;100.00;102105.59;5022276;28;20814;-64
2021/10/16 04:01:11;;;;;;;40.47;22.20;;;;;;;4.26;100.00;102106.81;5023317;28;20035;-63
2021/10/16 04:03:37;;;;;;;40.08;21.60;;;;;;;4.23;100.00;102109.28;5023460;28;20104;-63
2021/10/16 04:06:02;;;;;;;39.08;21.80;;;;;;;4.34;100.00;102105.47;5012948;28;20048;-65
2021/10/16 04:08:28;;;;;;;37.78;21.10;;;;;;;4.39;100.00;102108.31;5013412;28;20026;-64
2021/10/16 04:10:53;;;;;;;39.03;20.92;;;;;;;4.32;100.00;102102.75;5012969;28;20056;-64
2021/10/16 04:13:19;;;;;;;44.50;21.63;;;;;;;4.31;100.00;102100.06;5023847;28;20053;-64
2021/10/16 04:15:44;;;;;;;40.28;20.73;;;;;;;4.35;100.00;102107.25;5021575;28;20038;-63
2021/10/16 04:18:09;;;;;;;40.45;22.35;;;;;;;4.41;100.00;102111.91;5012866;28;20072;-64
2021/10/16 04:20:35;;;;;;;41.97;22.92;;;;;;;4.35;100.00;102115.09;5012844;28;20034;-63
2021/10/16 04:23:00;;;;;;;41.78;21.67;;;;;;;4.42;100.00;102114.59;5012910;28;20033;-64
2021/10/16 04:25:25;;;;;;;39.80;21.92;;;;;;;4.43;100.00;102112.91;5012751;28;20022;-64
2021/10/16 04:27:51;;;;;;;37.83;21.70;;;;;;;4.52;100.00;102113.34;5012663;28;20392;-63
2021/10/16 04:30:17;;;;;;;44.85;23.15;;;;;;;4.49;100.00;102102.72;5023943;28;20022;-68
2021/10/16 04:32:42;;;;;;;45.70;26.05;;;;;;;4.48;100.00;102104.41;5022162;28;20512;-69
2021/10/16 04:35:09;;;;;;;43.17;23.00;;;;;;;4.58;100.00;102110.13;5012651;28;20028;-68
2021/10/16 04:37:34;;;;;;;43.47;24.33;;;;;;;4.63;100.00;102112.16;5022049;28;20029;-68
2021/10/16 04:40:09;;;;;;;53.97;30.05;;;;;;;4.60;100.00;102116.31;5024050;28;20029;-67
2021/10/16 04:42:34;;;;;;;54.15;32.20;;;;;;;4.66;100.00;102101.81;5021836;28;20030;-69
2021/10/16 04:45:00;;;;;;;62.50;33.38;;;;;;;4.69;100.00;102116.78;5023926;28;20078;-69
2021/10/16 04:47:26;;;;;;;56.03;32.67;;;;;;;4.71;100.00;102109.91;5011543;28;20125;-69
2021/10/16 04:49:52;;;;;;;59.17;32.65;;;;;;;4.75;100.00;102111.84;5024026;28;20108;-69
2021/10/16 04:52:17;;;;;;;61.92;34.20;;;;;;;4.71;100.00;102107.28;5021593;28;20041;-68
2021/10/16 04:54:42;;;;;;;60.85;36.40;;;;;;;4.67;100.00;102107.94;5022652;28;20042;-69
2021/10/16 04:57:08;;;;;;;60.17;34.47;;;;;;;4.69;100.00;102106.31;5022608;28;20048;-69
2021/10/16 04:59:33;;;;;;;57.60;34.13;;;;;;;4.71;100.00;102108.16;5012755;28;20481;-68
2021/10/16 05:01:59;;;;;;;55.40;31.58;;;;;;;4.78;100.00;102116.34;5012619;28;20026;-69
2021/10/16 05:04:24;;;;;;;54.75;31.05;;;;;;;4.78;100.00;102106.75;5012860;28;20462;-68
2021/10/16 05:06:49;;;;;;;51.35;29.73;;;;;;;4.78;100.00;102116.34;5012384;28;20026;-69
2021/10/16 05:09:15;;;;;;;53.28;30.27;;;;;;;4.84;100.00;102119.25;5012603;28;20428;-69
2021/10/16 05:11:40;;;;;;;54.17;29.65;;;;;;;4.83;100.00;102109.59;5012574;28;20026;-64
2021/10/16 05:14:06;;;;;;;48.42;27.92;;;;;;;4.91;100.00;102112.56;5012128;28;20469;-64
2021/10/16 05:16:32;;;;;;;56.95;30.20;;;;;;;4.88;100.00;102103.75;5021248;28;20037;-63
2021/10/16 05:18:58;;;;;;;51.95;29.67;;;;;;;4.91;100.00;102112.56;5024187;28;20021;-64
2021/10/16 05:21:23;;;;;;;51.15;28.30;;;;;;;4.91;100.00;102113.47;5012116;28;20405;-64
2021/10/16 05:23:48;;;;;;;53.28;28.08;;;;;;;4.93;100.00;102109.19;5023334;28;20026;-63
2021/10/16 05:26:14;;;;;;;51.17;28.40;;;;;;;4.91;100.00;102108.25;5023691;28;20029;-64
2021/10/16 05:28:39;;;;;;;51.85;27.92;;;;;;;4.95;100.00;102109.25;5014707;28;20037;-64
2021/10/16 05:31:04;;;;;;;49.50;28.20;;;;;;;4.94;100.00;102104.88;5015577;28;20456;-63
2021/10/16 05:33:30;;;;;;;44.65;26.20;;;;;;;4.96;100.00;102116.31;5016102;28;20022;-64
2021/10/16 05:35:56;;;;;;;48.03;26.63;;;;;;;5.00;100.00;102118.25;5015614;28;20276;-64
2021/10/16 05:38:22;;;;;;;48.78;26.02;;;;;;;4.97;100.00;102119.00;5027062;28;20116;-63
2021/10/16 05:40:47;;;;;;;53.28;26.42;;;;;;;4.93;100.00;102117.06;5024564;28;20026;-64
2021/10/16 05:43:12;;;;;;;52.13;26.55;;;;;;;4.92;100.00;102123.13;5024564;28;20141;-64
2021/10/16 05:45:38;;;;;;;44.13;24.55;;;;;;;4.93;100.00;102116.16;5025679;28;20025;-64
2021/10/16 05:48:03;;;;;;;46.53;25.00;;;;;;;4.97;100.00;102128.59;5024366;28;20037;-63
2021/10/16 05:50:30;;;;;;;41.83;24.10;;;;;;;5.02;100.00;102125.38;5026796;28;20029;-64
2021/10/16 05:52:55;;;;;;;45.70;24.88;;;;;;;5.02;100.00;102119.22;5023735;28;20113;-64
2021/10/16 05:55:21;;;;;;;48.83;26.40;;;;;;;5.04;100.00;102125.44;5026536;28;20200;-67
2021/10/16 05:57:46;;;;;;;44.50;26.60;;;;;;;5.03;100.00;102121.03;5024317;28;20560;-66
2021/10/16 06:00:12;;;;;;;51.17;26.80;;;;;;;5.10;100.00;102127.44;5025352;28;20483;-68
2021/10/16 06:02:38;;;;;;;48.90;26.52;;;;;;;5.17;100.00;102116.41;5025868;28;20042;-65
2021/10/16 06:05:03;;;;;;;50.28;27.20;;;;;;;5.18;100.00;102119.09;5015036;28;20385;-68
2021/10/16 06:07:29;;;;;;;50.17;26.67;;;;;;;5.24;100.00;102119.41;5023937;28;20042;-68
2021/10/16 06:09:54;;;;;;;51.60;27.35;;;;;;;5.29;100.00;102118.72;5025606;28;20092;-68
2021/10/16 06:12:20;;;;;;;51.80;26.40;;;;;;;5.28;100.00;102122.19;5023937;28;20054;-67
2021/10/16 06:14:45;;;;;;;50.55;28.92;;;;;;;5.32;100.00;102122.38;5015212;28;20034;-67
2021/10/16 06:17:10;;;;;;;52.20;27.95;;;;;;;5.33;100.00;102123.25;5014780;28;20117;-68
2021/10/16 06:19:36;;;;;;;50.75;29.05;;;;;;;5.32;100.00;102121.50;5024467;28;20551;-66
2021/10/16 06:22:01;;;;;;;51.58;28.48;;;;;;;5.34;100.00;102123.34;5026068;28;20044;-68
2021/10/16 06:24:27;;;;;;;48.33;28.55;;;;;;;5.35;100.00;102122.53;5023056;28;20030;-69
2021/10/16 06:26:52;;;;;;;52.38;28.02;;;;;;;5.35;100.00;102122.53;5026473;28;20030;-69
2021/10/16 06:29:17;;;;;;;50.17;28.45;;;;;;;5.38;100.00;102127.91;5023555;28;20430;-68
2021/10/16 06:31:43;;;;;;;52.28;27.83;;;;;;;5.40;100.00;102133.22;5024700;28;20026;-68
2021/10/16 06:34:08;;;;;;;46.55;27.65;;;;;;;5.43;100.00;102132.47;5025104;28;20487;-67
2021/10/16 06:36:34;;;;;;;46.38;27.02;;;;;;;5.41;100.00;102127.16;5023050;28;20028;-68
2021/10/16 06:39:00;;;;;;;50.75;28.35;;;;;;;5.45;100.00;102138.69;5025626;28;20029;-67
2021/10/16 06:41:25;;;;;;;48.10;28.27;;;;;;;5.47;100.00;102135.28;5022961;28;20118;-66
2021/10/16 06:43:51;;;;;;;51.20;29.45;;;;;;;5.51;100.00;102129.38;5014350;28;20524;-66
2021/10/16 06:46:16;;;;;;;60.45;31.15;;;;;;;5.54;100.00;102139.09;5025019;28;20022;-64
2021/10/16 06:48:41;;;;;;;58.63;32.92;;;;;;;5.55;100.00;102136.56;5024024;28;20380;-69
2021/10/16 06:51:07;;;;;;;59.17;33.55;;;;;;;5.56;100.00;102135.72;5014515;28;20385;-67
2021/10/16 06:53:32;;;;;;;58.60;33.95;;;;;;;5.58;100.00;102135.81;5014397;28;20373;-67
2021/10/16 06:55:58;;;;;;;55.35;33.35;;;;;;;5.59;100.00;102133.25;5014160;28;20046;-68
2021/10/16 06:58:23;;;;;;;60.25;32.35;;;;;;;5.65;100.00;102134.34;5018572;28;20025;-67
2021/10/16 07:00:48;;;;;;;56.78;30.27;;;;;;;5.69;100.00;102133.66;5014220;28;20037;-68
2021/10/16 07:03:14;;;;;;;54.00;30.27;;;;;;;5.74;100.00;102134.75;5024239;28;20053;-68
2021/10/16 07:05:40;;;;;;;55.22;30.20;;;;;;;5.79;100.00;102127.97;5024104;28;20064;-68
2021/10/16 07:08:06;;;;;;;53.50;29.13;;;;;;;5.85;100.00;102136.13;5023389;28;20022;-67
2021/10/16 07:10:31;;;;;;;55.70;28.95;;;;;;;5.91;100.00;102143.38;5025062;28;20057;-68
2021/10/16 07:13:01;;;;;;;51.70;27.25;;;;;;;6.04;100.00;102142.22;5020982;28;20034;-68
2021/10/16 07:15:26;;;;;;;53.95;26.95;;;;;;;6.07;100.00;102139.72;5018538;28;20030;-68
2021/10/16 07:17:51;;;;;;;50.30;25.20;;;;;;;6.17;100.00;102144.53;5025122;28;20033;-69
2021/10/16 07:20:17;;;;;;;51.15;26.70;;;;;;;6.28;100.00;102152.91;5022496;28;20056;-68
2021/10/16 07:22:43;;;;;;;50.53;25.60;;;;;;;6.39;100.00;102151.63;5023772;28;20030;-69
2021/10/16 07:25:09;;;;;;;46.70;23.70;;;;;;;6.42;100.00;102157.00;5023745;28;20044;-69
2021/10/16 07:27:34;;;;;;;46.90;22.20;;;;;;;6.39;100.00;102151.63;5013502;28;20461;-67
2021/10/16 07:29:59;;;;;;;48.33;23.95;;;;;;;6.53;100.00;102153.94;5022357;28;20029;-68
2021/10/16 07:32:25;;;;;;;46.03;23.90;;;;;;;6.63;100.00;102156.09;5025227;28;20430;-67
2021/10/16 07:34:50;;;;;;;48.90;23.00;;;;;;;6.69;100.00;102155.47;5022005;28;20030;-68
2021/10/16 07:37:15;;;;;;;46.40;22.98;;;;;;;6.83;100.00;102154.31;5024349;28;20109;-64
2021/10/16 07:39:41;;;;;;;43.42;22.17;;;;;;;6.93;100.00;102159.09;5023049;28;20451;-67
2021/10/16 07:42:06;;;;;;;46.30;23.38;;;;;;;7.05;100.00;102163.94;5022551;28;20076;-66
2021/10/16 07:44:31;;;;;;;45.25;22.08;;;;;;;7.11;100.00;102169.44;5024723;28;20029;-65
2021/10/16 07:46:57;;;;;;;47.47;22.40;;;;;;;7.22;100.00;102164.59;5021373;28;20030;-66
2021/10/16 07:49:22;;;;;;;43.05;21.25;;;;;;;7.33;100.00;102168.53;5024492;28;20076;-65
2021/10/16 07:51:47;;;;;;;45.15;22.90;;;;;;;7.49;100.00;102164.75;5021816;28;20465;-66
2021/10/16 07:54:13;;;;;;;46.92;21.85;;;;;;;7.57;100.00;102165.06;5020964;28;20058;-65
2021/10/16 07:56:38;;;;;;;49.00;23.00;;;;;;;7.65;100.00;102166.22;5022733;28;20076;-65
2021/10/16 07:59:03;;;;;;;45.90;22.13;;;;;;;7.73;100.00;102168.25;5024016;28;20029;-65
2021/10/16 08:01:29;;;;;;;45.42;22.67;;;;;;;7.77;100.00;102164.91;5013115;28;20038;-65
2021/10/16 08:03:54;;;;;;;44.10;21.65;;;;;;;7.89;100.00;102173.25;5017294;28;20028;-65
2021/10/16 08:06:20;;;;;;;46.05;21.13;;;;;;;8.01;100.00;102172.81;5024027;28;20044;-64
2021/10/16 08:08:46;;;;;;;43.67;20.35;;;;;;;8.06;100.00;102173.84;5022169;28;20464;-65
2021/10/16 08:11:11;;;;;;;41.58;19.33;;;;;;;8.15;100.00;102160.13;5013020;28;20037;-64
2021/10/16 08:13:36;;;;;;;42.75;19.27;;;;;;;8.22;100.00;102164.75;5022076;28;20029;-63
2021/10/16 08:16:02;;;;;;;47.75;19.83;;;;;;;8.37;100.00;102164.38;5023963;28;20037;-63
2021/10/16 08:18:27;;;;;;;43.13;19.63;;;;;;;8.47;98.76;102165.66;5013220;28;20026;-64
2021/10/16 08:20:53;;;;;;;41.97;17.70;;;;;;;8.34;95.19;102165.22;5024286;28;20443;-65
2021/10/16 08:23:18;;;;;;;41.70;18.15;;;;;;;8.39;96.83;102173.25;5022305;28;20045;-65
2021/10/16 08:25:44;;;;;;;42.67;18.67;;;;;;;8.49;98.46;102177.13;5013021;28;20097;-64
2021/10/16 08:28:11;;;;;;;40.00;16.58;;;;;;;8.52;94.51;102174.63;5022116;28;20025;-64
2021/10/16 08:30:40;;;;;;;41.50;17.30;;;;;;;8.64;97.22;102175.00;5023440;28;20552;-64
2021/10/16 08:33:06;;;;;;;40.00;16.77;;;;;;;8.83;94.36;102175.63;5020481;28;20033;-65
2021/10/16 08:35:31;;;;;;;41.22;17.27;;;;;;;8.94;93.40;102173.34;5024050;28;20025;-64
2021/10/16 08:37:57;;;;;;;39.70;17.27;;;;;;;9.07;92.36;102172.88;5020965;28;20022;-64
2021/10/16 08:40:24;;;;;;;40.25;14.77;;;;;;;9.00;89.21;102176.16;5012523;28;20018;-64
2021/10/16 08:42:50;;;;;;;35.10;13.63;;;;;;;9.01;88.02;102183.22;5012542;28;20113;-64
2021/10/16 08:45:15;;;;;;;38.30;14.20;;;;;;;8.93;88.64;102183.00;5012912;28;20109;-69
2021/10/16 08:47:41;;;;;;;38.55;14.93;;;;;;;8.88;89.66;102182.84;5012496;28;20021;-68
2021/10/16 08:50:09;;;;;;;38.15;14.90;;;;;;;8.93;92.80;102176.81;5012560;28;20026;-67
2021/10/16 08:52:35;;;;;;;39.17;15.20;;;;;;;9.08;91.72;102177.31;5021469;28;20034;-68
2021/10/16 08:55:00;;;;;;;38.17;15.60;;;;;;;9.16;93.59;102180.19;5023939;28;20047;-66
2021/10/16 08:57:33;;;;;;;37.33;14.20;;;;;;;9.25;90.75;102181.38;5012907;28;20088;-68
2021/10/16 09:00:18;;;;;;;37.45;14.30;;;;;;;9.33;90.37;102178.97;5017513;28;20109;-68
2021/10/16 09:02:45;;;;;;;39.35;14.35;;;;;;;9.27;86.34;102189.34;5025972;28;20140;-68
2021/10/16 09:05:12;;;;;;;38.85;13.75;;;;;;;9.21;86.96;102190.03;5025703;28;20530;-69
2021/10/16 09:07:38;;;;;;;34.22;13.20;;;;;;;9.33;86.07;102189.50;5026871;28;20039;-69
2021/10/16 09:10:22;;;;;;;38.55;14.23;;;;;;;9.60;87.96;102184.19;5016293;28;20408;-68
2021/10/16 09:12:47;;;;;;;36.80;13.18;;;;;;;9.79;86.83;102183.84;5016377;28;20088;-68
2021/10/16 09:15:23;;;;;;;36.50;13.50;;;;;;;10.14;85.93;102182.19;5025989;28;20053;-67
2021/10/16 09:18:02;;;;;;;40.15;13.45;;;;;;;10.29;84.72;102186.97;5024968;28;20022;-66
2021/10/16 09:20:38;;;;;;;38.42;12.77;;;;;;;10.44;83.38;102187.44;5019191;28;20428;-69
2021/10/16 09:23:10;;;;;;;37.22;10.93;;;;;;;10.57;79.99;102193.03;5021530;28;20042;-66
2021/10/16 09:25:35;;;;;;;34.15;10.40;;;;;;;10.66;77.43;102193.28;5027134;28;20071;-69
2021/10/16 09:28:18;;;;;;;34.85;10.10;;;;;;;10.50;76.17;102194.63;5015773;28;20478;-66
2021/10/16 09:30:47;;;;;;;;;;;;;;;10.60;79.66;102198.38;5026282;28;20026;-68
2021/10/16 09:33:13;;;;;;;36.20;11.70;;;;;;;10.39;76.72;102194.34;5025623;28;20256;-67
2021/10/16 09:35:38;;;;;;;40.47;13.25;;;;;;;10.43;74.82;102190.94;5025109;28;20101;-66
2021/10/16 09:38:04;;;;;;;35.70;12.50;;;;;;;10.67;76.07;102181.81;5026673;28;20064;-68
2021/10/16 09:40:40;;;;;;;37.38;12.60;;;;;;;10.83;75.00;102188.41;5015494;28;20026;-66
2021/10/16 09:43:23;;;;;;;44.13;14.65;;;;;;;10.98;74.42;102196.72;5021804;28;20030;-67
2021/10/16 09:46:08;;;;;;;41.28;15.27;;;;;;;10.84;73.13;102191.97;5024959;28;20032;-67
2021/10/16 09:48:35;;;;;;;43.03;15.40;;;;;;;10.87;75.01;102190.25;5024065;28;20046;-64
2021/10/16 09:51:02;;;;;;;42.38;15.40;;;;;;;10.90;73.93;102186.81;5026741;28;20076;-64
2021/10/16 09:53:27;;;;;;;42.05;15.23;;;;;;;10.96;75.60;102201.06;5023323;28;20045;-65
2021/10/16 09:55:53;;;;;;;45.08;15.50;;;;;;;11.20;74.61;102193.66;5026533;28;20049;-65
2021/10/16 09:58:22;;;;;;;41.70;14.07;;;;;;;11.24;70.13;102198.19;5024465;28;20037;-64
2021/10/16 10:00:49;;;;;;;44.72;16.40;;;;;;;11.20;69.94;102191.03;5015176;28;20018;-64
2021/10/16 10:03:15;;;;;;;41.45;14.27;;;;;;;11.38;71.72;102182.63;5025287;28;20395;-64
2021/10/16 10:05:42;;;;;;;40.92;13.07;;;;;;;11.64;70.04;102180.53;5025447;28;20542;-65
2021/10/16 10:08:08;;;;;;;38.60;12.35;;;;;;;11.74;69.68;102179.88;5024127;28;20076;-65
2021/10/16 10:10:34;;;;;;;38.88;11.75;;;;;;;11.92;67.40;102184.63;5026704;28;20025;-64
2021/10/16 10:13:00;;;;;;;37.70;11.80;;;;;;;12.05;67.00;102187.59;5014008;28;20065;-65
2021/10/16 10:15:25;;;;;;;35.60;10.35;;;;;;;12.28;66.65;102185.38;5026982;28;20025;-64
2021/10/16 10:17:51;;;;;;;34.40;10.25;;;;;;;12.72;65.99;102191.44;5023882;28;20093;-64
2021/10/16 10:20:18;;;;;;;30.15;8.32;;;;;;;12.90;64.15;102197.91;5014834;28;20022;-65
2021/10/16 10:22:44;;;;;;;30.88;8.05;;;;;;;13.10;63.87;102184.97;5024610;28;20022;-65
2021/10/16 10:25:19;;;;;;;32.05;6.55;;;;;;;12.94;61.92;102194.47;5025279;28;20029;-65
2021/10/16 10:27:45;;;;;;;32.67;7.28;;;;;;;12.95;61.89;102184.75;5014832;28;20021;-64
2021/10/16 10:30:35;;;;;;;28.15;7.00;;;;;;;13.03;63.00;102191.97;5014676;28;20112;-65
2021/10/16 10:33:22;;;;;;;29.13;6.72;;;;;;;13.20;63.23;102188.66;5019704;28;20091;-65
2021/10/16 10:36:03;;;;;;;28.77;6.63;;;;;;;13.24;62.55;102185.19;5023990;28;20021;-65
2021/10/16 10:38:41;;;;;;;28.02;6.85;;;;;;;13.35;60.68;102182.72;5018920;28;20381;-65
2021/10/16 10:41:29;;;;;;;27.00;5.95;;;;;;;13.38;60.55;102185.41;5020985;28;20030;-65
2021/10/16 10:43:55;;;;;;;26.23;5.63;;;;;;;13.20;59.46;102184.22;5022548;28;20024;-65
2021/10/16 10:46:24;;;;;;;25.60;5.82;;;;;;;13.01;59.34;102183.06;5014472;28;20101;-68
2021/10/16 10:48:50;;;;;;;27.90;6.38;;;;;;;13.00;59.98;102183.03;5014452;28;20108;-68
2021/10/16 10:51:34;;;;;;;27.17;6.85;;;;;;;13.15;60.30;102180.63;5024341;28;20131;-68
2021/10/16 10:54:17;;;;;;;26.45;6.43;;;;;;;13.16;59.76;102171.78;5018947;28;20389;-68
2021/10/16 10:56:47;;;;;;;28.27;6.47;;;;;;;13.54;59.36;102173.22;5022489;28;20120;-68
2021/10/16 10:59:15;;;;;;;29.38;6.20;;;;;;;13.86;58.50;102168.34;5024160;28;20022;-69
2021/10/16 11:01:49;;;;;;;30.90;6.47;;;;;;;14.31;57.14;102166.13;5014159;28;20088;-67
2021/10/16 11:04:39;;;;;;;28.13;6.75;;;;;;;14.85;59.13;102171.06;5023844;28;20080;-68
2021/10/16 11:07:09;;;;;;;31.17;7.25;;;;;;;15.13;55.75;102161.50;5019448;28;20029;-68
2021/10/16 11:09:35;;;;;;;27.10;7.00;;;;;;;14.83;55.23;102171.06;5024944;28;20060;-67